createdAt,value
2017-01-28T00:00:40.637Z,47.99
2017-01-28T00:01:21.346Z,48.09
2017-01-28T00:02:02.037Z,47.89
2017-01-28T00:02:42.658Z,47.89
2017-01-28T00:03:23.286Z,47.99
2017-01-28T00:04:03.902Z,48.18
2017-01-28T00:04:44.588Z,47.99
2017-01-28T00:05:25.248Z,48.09
2017-01-28T00:06:05.880Z,48.09
2017-01-28T00:06:46.522Z,48.28
2017-01-28T00:07:27.257Z,47.99
2017-01-28T00:08:07.900Z,47.99
2017-01-28T00:08:48.543Z,47.99
2017-01-28T00:09:29.282Z,47.99
2017-01-28T00:10:10.004Z,47.8
2017-01-28T00:10:50.646Z,48.09
2017-01-28T00:11:31.309Z,47.99
2017-01-28T00:12:11.971Z,47.99
2017-01-28T00:12:52.626Z,47.89
2017-01-28T00:13:33.293Z,47.99
2017-01-28T00:14:14.017Z,47.89
2017-01-28T00:14:54.656Z,47.99
2017-01-28T00:15:35.300Z,47.99
2017-01-28T00:16:15.965Z,47.99
2017-01-28T00:16:56.599Z,48.09
2017-01-28T00:17:37.250Z,47.8
2017-01-28T00:18:17.885Z,47.89
2017-01-28T00:18:58.519Z,47.99
2017-01-28T00:19:39.145Z,48.18
2017-01-28T00:20:19.824Z,47.71
2017-01-28T00:21:00.458Z,48.09
2017-01-28T00:21:41.108Z,48.09
2017-01-28T00:22:21.763Z,48.09
2017-01-28T00:23:02.412Z,47.99
2017-01-28T00:23:43.070Z,47.99
2017-01-28T00:24:23.759Z,47.99
2017-01-28T00:25:04.397Z,47.99
2017-01-28T00:25:45.024Z,47.99
2017-01-28T00:26:25.743Z,47.99
2017-01-28T00:27:06.380Z,47.89
2017-01-28T00:27:47.035Z,47.89
2017-01-28T00:28:27.657Z,47.99
2017-01-28T00:29:08.298Z,47.99
2017-01-28T00:29:48.951Z,47.89
2017-01-28T00:30:29.664Z,48.09
2017-01-28T00:31:10.318Z,47.89
2017-01-28T00:31:50.970Z,47.89
2017-01-28T00:32:31.606Z,47.99
2017-01-28T00:33:12.350Z,47.89
2017-01-28T00:33:52.995Z,48.18
2017-01-28T00:34:33.658Z,47.99
2017-01-28T00:35:14.286Z,47.99
2017-01-28T00:35:54.962Z,48.09
2017-01-28T00:36:35.612Z,48.09
2017-01-28T00:37:16.291Z,47.99
2017-01-28T00:37:56.937Z,47.99
2017-01-28T00:38:37.582Z,47.89
2017-01-28T00:39:18.246Z,47.89
2017-01-28T00:39:58.960Z,48.28
2017-01-28T00:40:39.602Z,47.99
2017-01-28T00:41:20.235Z,47.99
2017-01-28T00:42:00.878Z,48.09
2017-01-28T00:42:41.523Z,48.09
2017-01-28T00:43:22.278Z,48.09
2017-01-28T00:44:02.912Z,48.18
2017-01-28T00:44:43.556Z,48.18
2017-01-28T00:45:24.203Z,47.99
2017-01-28T00:46:04.878Z,48.09
2017-01-28T00:46:45.513Z,48.09
2017-01-28T00:47:26.137Z,47.99
2017-01-28T00:48:06.783Z,47.99
2017-01-28T00:48:47.493Z,48.09
2017-01-28T00:49:28.144Z,48.18
2017-01-28T00:50:08.796Z,47.99
2017-01-28T00:52:11.379Z,47.89
2017-01-28T00:52:52.033Z,48.09
2017-01-28T00:53:32.667Z,48.09
2017-01-28T00:54:13.335Z,48.09
2017-01-28T00:54:53.975Z,47.8
2017-01-28T00:55:34.639Z,48.18
2017-01-28T00:56:15.271Z,48.09
2017-01-28T00:56:55.887Z,48.09
2017-01-28T00:57:36.556Z,47.89
2017-01-28T00:58:17.200Z,48.38
2017-01-28T00:58:57.837Z,47.99
2017-01-28T00:59:38.481Z,48.18
2017-01-28T01:00:19.121Z,47.8
2017-01-28T01:00:59.764Z,47.89
2017-01-28T01:01:40.384Z,47.99
2017-01-28T01:02:21.056Z,48.09
2017-01-28T01:03:01.678Z,48.09
2017-01-28T01:03:42.325Z,47.99
2017-01-28T01:04:22.962Z,47.89
2017-01-28T01:05:03.591Z,47.99
2017-01-28T01:05:44.215Z,47.8
2017-01-28T01:06:24.912Z,47.99
2017-01-28T01:07:05.549Z,47.89
2017-01-28T01:07:46.178Z,48.09
2017-01-28T01:08:26.831Z,48.09
2017-01-28T01:09:07.464Z,48.28
2017-01-28T01:09:48.096Z,47.99
2017-01-28T01:10:28.756Z,48.09
2017-01-28T01:11:09.390Z,47.99
2017-01-28T01:11:50.023Z,47.99
2017-01-28T01:12:30.674Z,47.99
2017-01-28T01:13:11.295Z,47.99
2017-01-28T01:13:51.928Z,48.09
2017-01-28T01:14:32.563Z,47.99
2017-01-28T01:15:13.189Z,47.8
2017-01-28T01:15:53.818Z,47.99
2017-01-28T01:16:34.444Z,47.8
2017-01-28T01:17:15.076Z,47.99
2017-01-28T01:17:55.743Z,48.18
2017-01-28T01:18:36.444Z,47.89
2017-01-28T01:19:17.082Z,47.89
2017-01-28T01:19:57.708Z,47.99
2017-01-28T01:20:38.341Z,47.89
2017-01-28T01:21:18.981Z,48.28
2017-01-28T01:21:59.606Z,47.99
2017-01-28T01:22:40.239Z,48.09
2017-01-28T01:23:20.872Z,47.99
2017-01-28T01:24:01.498Z,47.99
2017-01-28T01:24:42.202Z,48.28
2017-01-28T01:25:22.836Z,47.99
2017-01-28T01:26:03.470Z,48.09
2017-01-28T01:26:44.173Z,47.8
2017-01-28T01:27:24.804Z,47.99
2017-01-28T01:28:05.424Z,47.99
2017-01-28T01:28:46.058Z,47.99
2017-01-28T01:29:26.695Z,48.18
2017-01-28T01:30:07.323Z,48.18
2017-01-28T01:30:47.964Z,48.18
2017-01-28T01:31:28.587Z,48.09
2017-01-28T01:32:09.216Z,47.97
2017-01-28T01:32:49.850Z,48.18
2017-01-28T01:33:30.492Z,48.28
2017-01-28T01:34:11.120Z,47.71
2017-01-28T01:34:51.790Z,48.18
2017-01-28T01:35:32.419Z,47.99
2017-01-28T01:36:13.062Z,47.8
2017-01-28T01:36:53.712Z,47.97
2017-01-28T01:37:34.351Z,47.89
2017-01-28T01:38:14.989Z,47.97
2017-01-28T01:38:55.641Z,47.97
2017-01-28T01:39:36.283Z,47.99
2017-01-28T01:40:16.916Z,47.97
2017-01-28T01:40:57.539Z,47.99
2017-01-28T01:41:38.178Z,47.8
2017-01-28T01:42:18.834Z,47.89
2017-01-28T01:42:59.463Z,48.18
2017-01-28T01:43:40.091Z,47.71
2017-01-28T01:44:20.733Z,48.09
2017-01-28T01:45:01.351Z,47.97
2017-01-28T01:45:41.978Z,47.99
2017-01-28T01:46:22.606Z,47.99
2017-01-28T01:47:03.230Z,47.77
2017-01-28T01:47:43.889Z,48.09
2017-01-28T01:48:24.523Z,48.09
2017-01-28T01:49:05.160Z,47.97
2017-01-28T01:49:45.793Z,47.89
2017-01-28T01:50:26.505Z,47.71
2017-01-28T01:51:07.135Z,48.16
2017-01-28T01:51:47.802Z,48.09
2017-01-28T01:52:28.442Z,47.99
2017-01-28T01:53:09.163Z,47.99
2017-01-28T01:53:49.795Z,47.97
2017-01-28T01:54:30.426Z,47.97
2017-01-28T01:55:11.054Z,47.99
2017-01-28T01:55:51.691Z,47.97
2017-01-28T01:56:32.315Z,47.99
2017-01-28T01:57:12.949Z,47.99
2017-01-28T01:57:53.588Z,48.09
2017-01-28T01:58:34.243Z,47.8
2017-01-28T01:59:14.869Z,47.99
2017-01-28T01:59:55.557Z,47.77
2017-01-28T02:00:36.176Z,47.87
2017-01-28T02:01:16.815Z,47.77
2017-01-28T02:01:57.455Z,47.99
2017-01-28T02:02:38.085Z,47.87
2017-01-28T02:03:18.710Z,47.99
2017-01-28T02:03:59.338Z,47.99
2017-01-28T02:04:39.976Z,47.97
2017-01-28T02:05:20.606Z,47.99
2017-01-28T02:06:01.239Z,47.99
2017-01-28T02:06:41.889Z,47.99
2017-01-28T02:07:22.511Z,47.97
2017-01-28T02:08:03.145Z,48.07
2017-01-28T02:08:43.780Z,48.09
2017-01-28T02:09:24.427Z,48.09
2017-01-28T02:10:05.049Z,48.35
2017-01-28T02:10:45.692Z,48.09
2017-01-28T02:11:26.359Z,47.99
2017-01-28T02:12:06.992Z,48.18
2017-01-28T02:12:47.621Z,48.28
2017-01-28T02:13:28.260Z,48.28
2017-01-28T02:14:08.881Z,48.07
2017-01-28T02:14:49.516Z,48.25
2017-01-28T02:15:30.215Z,48.25
2017-01-28T02:16:10.852Z,48.07
2017-01-28T02:16:51.471Z,48.18
2017-01-28T02:17:32.109Z,48.09
2017-01-28T02:18:12.732Z,48.07
2017-01-28T02:18:53.361Z,48.09
2017-01-28T02:19:34.005Z,48.25
2017-01-28T02:20:14.642Z,48.09
2017-01-28T02:20:55.266Z,48.07
2017-01-28T02:21:35.894Z,48.25
2017-01-28T02:22:16.530Z,48.25
2017-01-28T02:22:57.154Z,48.28
2017-01-28T02:23:37.791Z,48.25
2017-01-28T02:24:18.420Z,48.25
2017-01-28T02:24:59.060Z,48.38
2017-01-28T02:25:39.686Z,48.16
2017-01-28T02:26:20.312Z,48.35
2017-01-28T02:27:01.015Z,48.35
2017-01-28T02:27:41.639Z,48.35
2017-01-28T02:28:22.277Z,48.35
2017-01-28T02:29:02.906Z,48.38
2017-01-28T02:29:43.530Z,48.28
2017-01-28T02:30:24.168Z,48.38
2017-01-28T02:31:04.837Z,48.28
2017-01-28T02:31:45.476Z,48.28
2017-01-28T02:32:26.110Z,48.25
2017-01-28T02:33:06.811Z,48.25
2017-01-28T02:33:47.438Z,48.28
2017-01-28T02:34:28.066Z,48.18
2017-01-28T02:35:08.736Z,48.28
2017-01-28T02:35:49.365Z,48.25
2017-01-28T02:36:29.985Z,48.38
2017-01-28T02:37:10.673Z,48.35
2017-01-28T02:37:51.303Z,48.28
2017-01-28T02:38:31.936Z,48.35
2017-01-28T02:39:12.585Z,48.38
2017-01-28T02:39:53.221Z,48.28
2017-01-28T02:40:33.846Z,48.25
2017-01-28T02:41:14.521Z,48.35
2017-01-28T02:41:55.145Z,48.28
2017-01-28T02:42:35.775Z,48.28
2017-01-28T02:43:16.444Z,48.18
2017-01-28T02:43:57.075Z,48.16
2017-01-28T02:44:37.700Z,48.38
2017-01-28T02:45:18.355Z,48.38
2017-01-28T02:45:58.981Z,48.35
2017-01-28T02:46:39.621Z,48.54
2017-01-28T02:47:20.259Z,48.64
2017-01-28T02:48:00.893Z,48.54
2017-01-28T02:48:41.528Z,48.44
2017-01-28T02:49:22.165Z,48.54
2017-01-28T02:50:02.819Z,48.54
2017-01-28T02:50:43.455Z,48.44
2017-01-28T02:51:24.085Z,48.35
2017-01-28T02:52:04.762Z,48.44
2017-01-28T02:52:45.390Z,48.44
2017-01-28T02:53:26.029Z,48.44
2017-01-28T02:54:06.652Z,48.44
2017-01-28T02:54:47.274Z,48.54
2017-01-28T02:55:27.897Z,48.54
2017-01-28T02:56:08.522Z,48.54
2017-01-28T02:56:49.158Z,48.35
2017-01-28T02:57:29.794Z,48.64
2017-01-28T02:58:10.418Z,48.54
2017-01-28T02:58:51.029Z,48.64
2017-01-28T02:59:31.656Z,48.64
2017-01-28T03:00:12.292Z,48.44
2017-01-28T03:00:52.920Z,48.64
2017-01-28T03:01:33.595Z,48.44
2017-01-28T03:02:14.226Z,48.44
2017-01-28T03:02:54.875Z,48.64
2017-01-28T03:03:35.518Z,48.74
2017-01-28T03:04:16.136Z,48.64
2017-01-28T03:04:56.757Z,48.74
2017-01-28T03:05:37.462Z,48.74
2017-01-28T03:06:18.095Z,48.64
2017-01-28T03:06:58.733Z,48.64
2017-01-28T03:07:39.442Z,48.64
2017-01-28T03:08:20.071Z,48.74
2017-01-28T03:09:00.700Z,48.64
2017-01-28T03:09:41.437Z,48.64
2017-01-28T03:10:22.116Z,48.64
2017-01-28T03:11:02.753Z,48.44
2017-01-28T03:11:43.378Z,48.44
2017-01-28T03:12:23.994Z,48.54
2017-01-28T03:13:04.629Z,48.74
2017-01-28T03:13:45.273Z,48.93
2017-01-28T03:14:25.906Z,48.74
2017-01-28T03:15:06.536Z,48.64
2017-01-28T03:15:47.172Z,48.74
2017-01-28T03:16:27.793Z,48.64
2017-01-28T03:17:08.427Z,48.64
2017-01-28T03:17:49.051Z,48.44
2017-01-28T03:18:29.687Z,48.54
2017-01-28T03:19:10.309Z,48.54
2017-01-28T03:19:51.004Z,48.64
2017-01-28T03:20:31.642Z,48.64
2017-01-28T03:21:12.264Z,48.54
2017-01-28T03:21:52.894Z,48.54
2017-01-28T03:22:33.594Z,48.54
2017-01-28T03:23:14.353Z,48.35
2017-01-28T03:23:54.995Z,48.44
2017-01-28T03:24:35.627Z,48.74
2017-01-28T03:25:16.251Z,48.64
2017-01-28T03:25:56.883Z,48.44
2017-01-28T03:26:37.536Z,48.74
2017-01-28T03:27:18.174Z,48.54
2017-01-28T03:27:58.791Z,48.64
2017-01-28T03:28:39.433Z,48.54
2017-01-28T03:29:20.054Z,48.44
2017-01-28T03:30:00.710Z,48.44
2017-01-28T03:30:41.396Z,48.44
2017-01-28T03:31:22.084Z,48.44
2017-01-28T03:32:02.718Z,48.35
2017-01-28T03:32:43.347Z,48.25
2017-01-28T03:33:24.095Z,48.44
2017-01-28T03:34:04.728Z,48.44
2017-01-28T03:34:45.352Z,48.44
2017-01-28T03:35:25.976Z,48.35
2017-01-28T03:36:06.603Z,48.54
2017-01-28T03:36:47.231Z,48.54
2017-01-28T03:37:27.916Z,48.44
2017-01-28T03:38:08.546Z,48.54
2017-01-28T03:38:49.238Z,48.44
2017-01-28T03:39:29.952Z,48.35
2017-01-28T03:40:10.609Z,48.64
2017-01-28T03:40:51.250Z,48.35
2017-01-28T03:41:31.882Z,48.54
2017-01-28T03:42:12.509Z,48.54
2017-01-28T03:42:53.140Z,48.54
2017-01-28T03:43:33.845Z,48.44
2017-01-28T03:44:14.550Z,48.64
2017-01-28T03:44:55.174Z,48.54
2017-01-28T03:45:35.814Z,48.74
2017-01-28T03:46:16.441Z,48.44
2017-01-28T03:46:57.067Z,48.74
2017-01-28T03:47:37.744Z,48.74
2017-01-28T03:48:18.376Z,48.74
2017-01-28T03:48:58.998Z,48.54
2017-01-28T03:49:39.634Z,48.64
2017-01-28T03:50:20.297Z,48.54
2017-01-28T03:51:01.675Z,48.74
2017-01-28T03:51:41.554Z,48.74
2017-01-28T03:52:22.204Z,48.74
2017-01-28T03:53:02.837Z,48.83
2017-01-28T03:53:43.463Z,48.83
2017-01-28T03:54:24.149Z,48.83
2017-01-28T03:55:04.773Z,48.54
2017-01-28T03:55:45.410Z,48.54
2017-01-28T03:56:26.033Z,48.64
2017-01-28T03:57:06.664Z,48.74
2017-01-28T03:57:47.306Z,48.44
2017-01-28T03:58:27.930Z,48.74
2017-01-28T03:59:08.559Z,48.83
2017-01-28T03:59:49.223Z,48.83
2017-01-28T04:00:29.852Z,48.64
2017-01-28T04:01:10.482Z,48.74
2017-01-28T04:01:51.113Z,48.83
2017-01-28T04:02:31.740Z,48.74
2017-01-28T04:03:12.359Z,48.74
2017-01-28T04:03:53.014Z,48.83
2017-01-28T04:04:33.648Z,48.74
2017-01-28T04:05:14.270Z,48.44
2017-01-28T04:05:54.950Z,48.44
2017-01-28T04:06:35.613Z,48.74
2017-01-28T04:07:16.245Z,48.74
2017-01-28T04:07:56.865Z,48.54
2017-01-28T04:08:37.542Z,48.93
2017-01-28T04:09:18.175Z,48.93
2017-01-28T04:09:58.802Z,48.64
2017-01-28T04:10:39.477Z,48.74
2017-01-28T04:11:20.115Z,48.64
2017-01-28T04:12:00.742Z,48.93
2017-01-28T04:12:41.383Z,49.02
2017-01-28T04:13:22.015Z,48.64
2017-01-28T04:14:02.647Z,48.64
2017-01-28T04:14:43.328Z,49.02
2017-01-28T04:15:23.956Z,48.93
2017-01-28T04:16:04.601Z,48.93
2017-01-28T04:16:45.256Z,48.83
2017-01-28T04:17:25.876Z,48.83
2017-01-28T04:18:06.512Z,48.93
2017-01-28T04:18:47.196Z,49.12
2017-01-28T04:19:27.822Z,49.21
2017-01-28T04:20:08.451Z,49.02
2017-01-28T04:20:49.191Z,49.02
2017-01-28T04:21:29.834Z,48.93
2017-01-28T04:22:10.458Z,49.02
2017-01-28T04:22:51.083Z,48.93
2017-01-28T04:23:31.722Z,48.93
2017-01-28T04:24:12.357Z,48.83
2017-01-28T04:24:52.992Z,49.02
2017-01-28T04:25:33.620Z,49.02
2017-01-28T04:26:14.283Z,49.21
2017-01-28T04:26:54.990Z,49.02
2017-01-28T04:27:35.629Z,48.93
2017-01-28T04:28:16.275Z,49.02
2017-01-28T04:28:57.041Z,48.93
2017-01-28T04:29:37.767Z,49.02
2017-01-28T04:30:18.396Z,48.93
2017-01-28T04:30:59.025Z,49.02
2017-01-28T04:31:39.769Z,48.93
2017-01-28T04:32:20.418Z,49.02
2017-01-28T04:33:01.051Z,49.02
2017-01-28T04:33:41.678Z,49.02
2017-01-28T04:34:22.302Z,49.02
2017-01-28T04:35:02.994Z,49.02
2017-01-28T04:35:43.620Z,48.93
2017-01-28T04:36:24.256Z,49.02
2017-01-28T04:37:04.891Z,48.83
2017-01-28T04:37:45.552Z,49.02
2017-01-28T04:38:26.176Z,48.64
2017-01-28T04:39:06.886Z,48.93
2017-01-28T04:39:47.511Z,49.02
2017-01-28T04:40:28.144Z,48.93
2017-01-28T04:41:08.774Z,49.02
2017-01-28T04:41:49.471Z,49.02
2017-01-28T04:42:30.200Z,48.93
2017-01-28T04:43:10.855Z,48.93
2017-01-28T04:43:51.485Z,49.12
2017-01-28T04:44:32.124Z,48.93
2017-01-28T04:45:12.768Z,49.31
2017-01-28T04:45:53.459Z,49.02
2017-01-28T04:46:34.085Z,49.12
2017-01-28T04:47:14.727Z,49.12
2017-01-28T04:47:55.346Z,49.02
2017-01-28T04:48:36.117Z,48.83
2017-01-28T04:49:16.746Z,48.83
2017-01-28T04:49:57.463Z,48.83
2017-01-28T04:50:38.153Z,49.02
2017-01-28T04:51:18.884Z,49.21
2017-01-28T04:51:59.526Z,49.21
2017-01-28T04:52:40.177Z,49.12
2017-01-28T04:53:20.835Z,49.02
2017-01-28T04:54:01.478Z,49.21
2017-01-28T04:54:42.175Z,49.41
2017-01-28T04:55:22.869Z,49.02
2017-01-28T04:56:03.505Z,49.31
2017-01-28T04:56:44.152Z,49.21
2017-01-28T04:57:24.852Z,49.31
2017-01-28T04:58:05.489Z,49.21
2017-01-28T04:58:46.111Z,49.31
2017-01-28T04:59:26.732Z,49.41
2017-01-28T05:00:07.441Z,49.21
2017-01-28T05:00:48.004Z,49.12
2017-01-28T05:01:28.730Z,49.31
2017-01-28T05:02:09.367Z,48.93
2017-01-28T05:02:49.998Z,49.21
2017-01-28T05:03:30.619Z,49.02
2017-01-28T05:04:11.289Z,48.93
2017-01-28T05:04:51.934Z,49.12
2017-01-28T05:06:44.618Z,49.31
2017-01-28T05:07:25.251Z,49.12
2017-01-28T05:08:05.882Z,49.12
2017-01-28T05:08:46.583Z,49.02
2017-01-28T05:09:27.290Z,49.12
2017-01-28T05:10:07.915Z,49.21
2017-01-28T05:10:48.537Z,49.31
2017-01-28T05:11:29.166Z,49.31
2017-01-28T05:12:09.801Z,49.21
2017-01-28T05:12:50.469Z,49.21
2017-01-28T05:13:31.113Z,49.12
2017-01-28T05:14:11.730Z,49.69
2017-01-28T05:14:52.382Z,49.6
2017-01-28T05:15:33.005Z,49.6
2017-01-28T05:16:13.638Z,49.69
2017-01-28T05:16:54.264Z,49.6
2017-01-28T05:17:34.992Z,49.69
2017-01-28T05:18:15.597Z,49.69
2017-01-28T05:18:56.217Z,49.5
2017-01-28T05:19:36.844Z,49.69
2017-01-28T05:20:17.467Z,49.31
2017-01-28T05:20:58.088Z,49.6
2017-01-28T05:21:38.807Z,49.6
2017-01-28T05:22:19.449Z,49.6
2017-01-28T05:23:00.076Z,49.6
2017-01-28T05:23:40.723Z,49.6
2017-01-28T05:24:21.338Z,49.6
2017-01-28T05:25:02.003Z,49.5
2017-01-28T05:25:42.635Z,49.6
2017-01-28T05:26:23.279Z,49.6
2017-01-28T05:27:03.903Z,49.6
2017-01-28T05:27:44.530Z,49.6
2017-01-28T05:28:25.158Z,49.6
2017-01-28T05:29:05.808Z,49.5
2017-01-28T05:29:46.431Z,49.6
2017-01-28T05:30:27.053Z,49.6
2017-01-28T05:31:07.681Z,49.5
2017-01-28T05:31:48.318Z,49.41
2017-01-28T05:32:28.949Z,49.21
2017-01-28T05:33:09.615Z,49.41
2017-01-28T05:33:50.292Z,49.21
2017-01-28T05:34:30.910Z,49.21
2017-01-28T05:35:11.542Z,49.21
2017-01-28T05:35:52.228Z,49.21
2017-01-28T05:36:32.849Z,49.21
2017-01-28T05:37:13.474Z,49.21
2017-01-28T05:37:54.096Z,49.12
2017-01-28T05:38:34.758Z,49.41
2017-01-28T05:39:15.495Z,49.21
2017-01-28T05:39:56.118Z,49.31
2017-01-28T05:40:36.767Z,49.21
2017-01-28T05:41:17.378Z,49.12
2017-01-28T05:41:58.120Z,49.12
2017-01-28T05:42:38.768Z,49.41
2017-01-28T05:43:19.391Z,49.41
2017-01-28T05:44:00.021Z,49.12
2017-01-28T05:44:40.713Z,49.02
2017-01-28T05:45:21.351Z,49.31
2017-01-28T05:46:01.976Z,49.21
2017-01-28T05:46:42.604Z,49.21
2017-01-28T05:47:23.352Z,49.12
2017-01-28T05:48:03.972Z,49.21
2017-01-28T05:48:44.723Z,49.21
2017-01-28T05:49:25.358Z,49.21
2017-01-28T05:50:05.985Z,49.31
2017-01-28T05:50:46.617Z,49.02
2017-01-28T05:51:27.282Z,49.12
2017-01-28T05:52:07.998Z,49.12
2017-01-28T05:52:48.596Z,49.12
2017-01-28T05:53:29.214Z,49.21
2017-01-28T05:54:09.845Z,49.31
2017-01-28T05:54:50.490Z,49.12
2017-01-28T05:55:31.125Z,49.21
2017-01-28T05:56:11.750Z,49.31
2017-01-28T05:56:52.403Z,49.5
2017-01-28T05:57:33.039Z,49.31
2017-01-28T05:58:13.692Z,49.12
2017-01-28T05:58:54.390Z,49.21
2017-01-28T05:59:35.017Z,49.12
2017-01-28T06:00:15.643Z,49.41
2017-01-28T06:00:56.267Z,49.41
2017-01-28T06:01:36.913Z,49.41
2017-01-28T06:02:17.527Z,49.31
2017-01-28T06:02:58.250Z,49.21
2017-01-28T06:03:38.881Z,49.5
2017-01-28T06:04:19.536Z,49.6
2017-01-28T06:05:00.136Z,49.31
2017-01-28T06:05:40.770Z,49.5
2017-01-28T06:06:21.390Z,49.41
2017-01-28T06:07:02.129Z,49.31
2017-01-28T06:07:42.754Z,49.31
2017-01-28T06:08:23.378Z,49.21
2017-01-28T06:09:04.000Z,49.41
2017-01-28T06:09:44.696Z,49.5
2017-01-28T06:10:25.348Z,49.21
2017-01-28T06:11:06.071Z,49.5
2017-01-28T06:11:46.697Z,49.6
2017-01-28T06:12:27.323Z,49.41
2017-01-28T06:13:07.935Z,49.41
2017-01-28T06:13:48.596Z,49.41
2017-01-28T06:14:29.223Z,49.41
2017-01-28T06:15:09.853Z,49.41
2017-01-28T06:15:50.477Z,49.41
2017-01-28T06:16:31.095Z,49.6
2017-01-28T06:17:11.729Z,49.41
2017-01-28T06:17:52.451Z,49.21
2017-01-28T06:18:33.088Z,49.41
2017-01-28T06:19:13.733Z,49.21
2017-01-28T06:19:54.358Z,49.6
2017-01-28T06:20:34.998Z,49.6
2017-01-28T06:21:15.626Z,49.31
2017-01-28T06:21:56.307Z,49.41
2017-01-28T06:22:36.935Z,49.6
2017-01-28T06:23:17.589Z,49.5
2017-01-28T06:23:58.198Z,49.69
2017-01-28T06:24:38.831Z,49.5
2017-01-28T06:25:19.547Z,49.88
2017-01-28T06:26:00.268Z,49.31
2017-01-28T06:26:40.907Z,49.69
2017-01-28T06:27:21.537Z,49.79
2017-01-28T06:28:02.166Z,49.88
2017-01-28T06:28:42.809Z,49.88
2017-01-28T06:29:23.462Z,49.69
2017-01-28T06:30:04.091Z,49.79
2017-01-28T06:30:44.726Z,50.08
2017-01-28T06:31:25.355Z,49.79
2017-01-28T06:32:05.986Z,49.88
2017-01-28T06:32:46.607Z,49.79
2017-01-28T06:33:27.288Z,49.79
2017-01-28T06:34:07.977Z,49.79
2017-01-28T06:34:48.639Z,49.79
2017-01-28T06:35:29.265Z,49.79
2017-01-28T06:36:09.975Z,49.79
2017-01-28T06:36:50.614Z,49.88
2017-01-28T06:37:31.236Z,49.79
2017-01-28T06:38:11.859Z,49.69
2017-01-28T06:38:52.541Z,49.98
2017-01-28T06:39:33.162Z,49.79
2017-01-28T06:40:13.842Z,49.79
2017-01-28T06:40:54.465Z,49.79
2017-01-28T06:41:35.096Z,49.69
2017-01-28T06:42:15.724Z,49.88
2017-01-28T06:42:56.376Z,49.79
2017-01-28T06:43:37.031Z,49.69
2017-01-28T06:44:17.679Z,50.65
2017-01-28T06:44:58.304Z,50.17
2017-01-28T06:45:38.931Z,50.17
2017-01-28T06:46:19.583Z,50.08
2017-01-28T06:47:00.306Z,49.69
2017-01-28T06:47:40.943Z,49.69
2017-01-28T06:48:21.569Z,49.88
2017-01-28T06:49:02.223Z,50.17
2017-01-28T06:49:42.861Z,50.08
2017-01-28T06:50:23.488Z,49.98
2017-01-28T06:51:04.133Z,49.69
2017-01-28T06:51:44.778Z,49.79
2017-01-28T06:52:25.400Z,49.79
2017-01-28T06:53:06.021Z,49.79
2017-01-28T06:53:46.644Z,49.79
2017-01-28T06:54:27.287Z,50.08
2017-01-28T06:55:07.954Z,49.98
2017-01-28T06:55:48.583Z,50.65
2017-01-28T06:56:29.251Z,49.98
2017-01-28T06:57:09.899Z,50.08
2017-01-28T06:57:50.519Z,49.98
2017-01-28T06:58:31.181Z,50.17
2017-01-28T06:59:11.789Z,50.56
2017-01-28T06:59:52.426Z,50.65
2017-01-28T07:00:33.154Z,50.05
2017-01-28T07:01:13.800Z,50.08
2017-01-28T07:01:54.423Z,50.27
2017-01-28T07:02:35.045Z,50.17
2017-01-28T07:03:15.676Z,50.17
2017-01-28T07:03:56.303Z,50.27
2017-01-28T07:04:36.954Z,50.37
2017-01-28T07:05:17.587Z,50.27
2017-01-28T07:05:58.212Z,50.37
2017-01-28T07:06:38.843Z,50.34
2017-01-28T07:07:19.536Z,50.27
2017-01-28T07:08:00.185Z,50.17
2017-01-28T07:08:40.806Z,50.27
2017-01-28T07:09:21.443Z,50.37
2017-01-28T07:10:02.064Z,50.37
2017-01-28T07:10:42.701Z,50.17
2017-01-28T07:11:23.386Z,50.37
2017-01-28T07:12:04.013Z,50.27
2017-01-28T07:12:44.643Z,50.27
2017-01-28T07:13:25.281Z,50.43
2017-01-28T07:14:05.921Z,50.17
2017-01-28T07:14:46.656Z,50.17
2017-01-28T07:15:27.332Z,50.37
2017-01-28T07:16:07.958Z,50.17
2017-01-28T07:16:48.582Z,50.27
2017-01-28T07:17:29.230Z,50.27
2017-01-28T07:18:09.859Z,50.17
2017-01-28T07:18:50.547Z,50.08
2017-01-28T07:19:31.175Z,50.27
2017-01-28T07:20:11.807Z,50.27
2017-01-28T07:20:52.428Z,50.17
2017-01-28T07:21:33.164Z,50.17
2017-01-28T07:22:13.893Z,50.15
2017-01-28T07:22:54.514Z,50.37
2017-01-28T07:23:35.140Z,50.08
2017-01-28T07:24:15.765Z,50.27
2017-01-28T07:24:56.389Z,50.27
2017-01-28T07:25:37.103Z,50.17
2017-01-28T07:26:17.731Z,50.15
2017-01-28T07:26:58.361Z,50.27
2017-01-28T07:27:39.019Z,50.17
2017-01-28T07:28:19.613Z,50.37
2017-01-28T07:29:00.240Z,50.15
2017-01-28T07:29:40.899Z,50.17
2017-01-28T07:30:21.530Z,50.17
2017-01-28T07:31:02.165Z,50.37
2017-01-28T07:31:42.788Z,50.27
2017-01-28T07:32:23.418Z,50.17
2017-01-28T07:33:04.051Z,50.24
2017-01-28T07:33:44.757Z,50.17
2017-01-28T07:34:25.382Z,50.08
2017-01-28T07:35:06.011Z,50.24
2017-01-28T07:35:46.633Z,50.37
2017-01-28T07:36:27.315Z,50.34
2017-01-28T07:37:07.943Z,50.24
2017-01-28T07:37:48.583Z,50.37
2017-01-28T07:38:29.203Z,50.24
2017-01-28T07:39:09.834Z,50.17
2017-01-28T07:39:50.544Z,50.24
2017-01-28T07:40:31.177Z,49.86
2017-01-28T07:41:11.806Z,50.05
2017-01-28T07:41:52.500Z,50.43
2017-01-28T07:42:33.183Z,50.08
2017-01-28T07:43:13.802Z,50.43
2017-01-28T07:43:54.426Z,50.08
2017-01-28T07:44:35.068Z,50.08
2017-01-28T07:45:15.696Z,50.05
2017-01-28T07:45:56.400Z,49.96
2017-01-28T07:46:37.072Z,50.34
2017-01-28T07:47:17.695Z,50.17
2017-01-28T07:47:58.320Z,50.17
2017-01-28T07:48:38.942Z,50.27
2017-01-28T07:49:19.583Z,50.24
2017-01-28T07:50:00.236Z,50.15
2017-01-28T07:50:40.895Z,50.43
2017-01-28T07:51:21.539Z,50.05
2017-01-28T07:52:02.184Z,50.34
2017-01-28T07:52:42.851Z,50.46
2017-01-28T07:53:23.478Z,50.05
2017-01-28T07:54:04.109Z,50.15
2017-01-28T07:54:44.742Z,50.27
2017-01-28T07:55:25.375Z,50.24
2017-01-28T07:56:06.020Z,50.43
2017-01-28T07:56:46.703Z,50.53
2017-01-28T07:57:27.347Z,50.46
2017-01-28T07:58:07.977Z,50.17
2017-01-28T07:58:48.618Z,50.34
2017-01-28T07:59:29.264Z,50.34
2017-01-28T08:00:09.901Z,50.56
2017-01-28T08:00:50.575Z,50.63
2017-01-28T08:01:31.198Z,50.53
2017-01-28T08:02:11.826Z,50.53
2017-01-28T08:02:52.454Z,50.53
2017-01-28T08:03:33.177Z,50.37
2017-01-28T08:04:13.737Z,50.56
2017-01-28T08:04:54.418Z,50.53
2017-01-28T08:05:35.056Z,50.73
2017-01-28T08:06:15.687Z,50.53
2017-01-28T08:06:56.321Z,50.53
2017-01-28T08:07:37.031Z,50.56
2017-01-28T08:08:17.586Z,50.43
2017-01-28T08:08:58.291Z,50.46
2017-01-28T08:09:38.922Z,50.46
2017-01-28T08:10:19.545Z,50.43
2017-01-28T08:11:00.177Z,50.53
2017-01-28T08:11:40.872Z,50.82
2017-01-28T08:12:21.495Z,50.73
2017-01-28T08:13:02.119Z,50.75
2017-01-28T08:13:42.784Z,50.65
2017-01-28T08:14:23.413Z,50.73
2017-01-28T08:15:04.155Z,50.53
2017-01-28T08:15:44.862Z,50.65
2017-01-28T08:16:25.462Z,50.63
2017-01-28T08:17:06.101Z,50.73
2017-01-28T08:17:46.722Z,50.65
2017-01-28T08:18:27.363Z,50.63
2017-01-28T08:19:08.106Z,50.56
2017-01-28T08:19:48.737Z,50.63
2017-01-28T08:20:29.377Z,50.63
2017-01-28T08:21:09.996Z,50.84
2017-01-28T08:21:50.633Z,50.75
2017-01-28T08:22:31.256Z,50.63
2017-01-28T08:23:11.897Z,50.73
2017-01-28T08:23:52.582Z,50.73
2017-01-28T08:24:33.218Z,50.53
2017-01-28T08:25:13.845Z,50.63
2017-01-28T08:25:54.479Z,50.75
2017-01-28T08:26:35.132Z,50.56
2017-01-28T08:27:15.757Z,50.75
2017-01-28T08:27:56.407Z,50.63
2017-01-28T08:28:37.039Z,50.63
2017-01-28T08:29:17.675Z,50.94
2017-01-28T08:29:58.299Z,50.94
2017-01-28T08:30:38.927Z,50.92
2017-01-28T08:31:19.569Z,50.82
2017-01-28T08:32:00.207Z,50.82
2017-01-28T08:32:40.840Z,50.73
2017-01-28T08:33:21.522Z,50.94
2017-01-28T08:34:02.150Z,50.75
2017-01-28T08:34:42.781Z,51.01
2017-01-28T08:35:23.412Z,50.73
2017-01-28T08:36:04.042Z,50.82
2017-01-28T08:36:44.689Z,50.73
2017-01-28T08:37:25.403Z,50.94
2017-01-28T08:38:06.050Z,50.92
2017-01-28T08:38:46.710Z,50.94
2017-01-28T08:39:27.309Z,50.92
2017-01-28T08:40:08.026Z,51.1
2017-01-28T08:40:48.655Z,51.42
2017-01-28T08:41:29.290Z,51.4
2017-01-28T08:42:09.928Z,51.3
2017-01-28T08:42:50.614Z,51.32
2017-01-28T08:43:31.259Z,51.01
2017-01-28T08:44:11.884Z,51.4
2017-01-28T08:44:52.524Z,51.42
2017-01-28T08:45:33.153Z,51.42
2017-01-28T08:46:13.777Z,51.59
2017-01-28T08:46:54.469Z,51.59
2017-01-28T08:47:35.143Z,51.71